Terminal Aerodrome Forecast
Issued by NWS Kansas City/Pleasant Hill, MO

Home | Current Version | Previous Version | Text Only | Print | Product List | Glossary On
Versions: 1 2 3 4 5 6 7 8 9 10 11 12 13 14 15 16 17 18 19 20
000
FTUS43 KEAX 201100
TAFMCI
TAF
KMCI 201120Z 2012/2112 21010KT 4SM BR SKC
     FM201400 27010KT P6SM FEW015 SCT050
     FM202300 29007KT P6SM VCTS BKN050CB
      TEMPO 2023/2103 -TSRA=

USA.gov is the U.S. government's official web portal to all federal, state and local government web resources and services.